createdAt,value
2018-04-22T00:01:37.741Z,73.07
2018-04-22T00:04:05.863Z,73.22
2018-04-22T00:06:33.991Z,74.35
2018-04-22T00:09:02.134Z,74.94
2018-04-22T00:11:30.251Z,75.52
2018-04-22T00:13:58.379Z,75.47
2018-04-22T00:16:26.550Z,75.62
2018-04-22T00:18:54.688Z,75.80
2018-04-22T00:21:22.814Z,76.03
2018-04-22T00:23:50.954Z,76.23
2018-04-22T00:26:19.089Z,76.76
2018-04-22T00:28:47.219Z,77.13
2018-04-22T00:31:15.480Z,78.02
2018-04-22T00:33:43.606Z,78.19
2018-04-22T00:36:11.758Z,78.64
2018-04-22T00:38:39.970Z,78.38
2018-04-22T00:41:08.107Z,78.16
2018-04-22T00:43:36.256Z,77.95
2018-04-22T00:46:04.399Z,78.61
2018-04-22T00:48:32.517Z,79.30
2018-04-22T00:51:00.645Z,79.21
2018-04-22T00:53:28.794Z,78.73
2018-04-22T00:55:56.936Z,79.73
2018-04-22T00:58:25.049Z,80.00
2018-04-22T01:00:53.215Z,79.54
2018-04-22T01:03:21.344Z,79.29
2018-04-22T01:05:49.470Z,79.24
2018-04-22T01:08:17.628Z,79.40
2018-04-22T01:10:45.767Z,79.31
2018-04-22T01:13:13.953Z,79.45
2018-04-22T01:15:42.152Z,80.11
2018-04-22T01:18:10.253Z,80.29
2018-04-22T01:20:38.379Z,80.74
2018-04-22T01:23:06.530Z,81.95
2018-04-22T01:25:34.666Z,81.74
2018-04-22T01:28:02.812Z,81.48
2018-04-22T01:30:30.950Z,81.98
2018-04-22T01:32:59.079Z,82.52
2018-04-22T01:35:27.207Z,82.70
2018-04-22T01:37:55.387Z,82.48
2018-04-22T01:40:23.502Z,82.38
2018-04-22T01:42:51.731Z,82.31
2018-04-22T01:45:19.871Z,83.17
2018-04-22T01:47:48.063Z,82.79
2018-04-22T01:50:16.273Z,82.49
2018-04-22T01:52:44.407Z,82.48
2018-04-22T01:55:12.545Z,82.05
2018-04-22T01:57:40.677Z,82.65
2018-04-22T02:00:08.823Z,82.46
2018-04-22T02:02:36.953Z,82.34
2018-04-22T02:05:05.086Z,82.74
2018-04-22T02:07:33.232Z,82.51
2018-04-22T02:10:01.362Z,82.24
2018-04-22T02:12:29.487Z,82.05
2018-04-22T02:14:57.634Z,81.96
2018-04-22T02:17:25.859Z,82.11
2018-04-22T02:19:54.077Z,82.09
2018-04-22T02:22:22.206Z,82.21
2018-04-22T02:24:50.388Z,82.09
2018-04-22T02:27:18.582Z,82.07
2018-04-22T02:29:46.646Z,81.85
2018-04-22T02:32:14.774Z,81.68
2018-04-22T02:34:42.897Z,82.19
2018-04-22T02:37:11.929Z,83.06
2018-04-22T02:39:40.129Z,83.44
2018-04-22T02:42:08.263Z,83.30
2018-04-22T02:44:36.403Z,83.76
2018-04-22T02:47:04.571Z,84.56
2018-04-22T02:49:32.711Z,84.42
2018-04-22T02:52:00.847Z,84.47
2018-04-22T02:54:28.979Z,84.30
2018-04-22T02:56:57.102Z,84.18
2018-04-22T02:59:25.251Z,84.41
2018-04-22T03:01:53.384Z,84.86
2018-04-22T03:04:21.519Z,84.76
2018-04-22T03:06:49.659Z,85.44
2018-04-22T03:09:17.811Z,85.78
2018-04-22T03:11:45.939Z,86.03
2018-04-22T03:14:14.070Z,85.85
2018-04-22T03:16:42.205Z,85.61
2018-04-22T03:19:10.336Z,85.70
2018-04-22T03:21:38.464Z,85.63
2018-04-22T03:24:06.602Z,85.32
2018-04-22T03:26:34.724Z,86.26
2018-04-22T03:29:02.860Z,86.00
2018-04-22T03:31:30.991Z,85.38
2018-04-22T03:33:59.121Z,85.34
2018-04-22T03:36:27.247Z,85.48
2018-04-22T03:38:55.395Z,85.58
2018-04-22T03:41:23.525Z,85.73
2018-04-22T03:43:51.672Z,85.77
2018-04-22T03:46:19.801Z,86.22
2018-04-22T03:48:47.944Z,86.60
2018-04-22T03:51:16.096Z,86.56
2018-04-22T03:53:44.246Z,86.19
2018-04-22T03:56:12.375Z,86.11
2018-04-22T03:58:40.534Z,86.16
2018-04-22T04:01:08.674Z,86.34
2018-04-22T04:03:36.827Z,86.56
2018-04-22T04:06:04.951Z,86.63
2018-04-22T04:08:33.091Z,86.65
2018-04-22T04:11:01.233Z,86.42
2018-04-22T04:13:29.376Z,86.31
2018-04-22T04:15:57.514Z,87.20
2018-04-22T04:21:45.133Z,88.00
2018-04-22T04:27:23.838Z,88.44
2018-04-22T04:29:51.975Z,88.68
2018-04-22T04:32:20.097Z,88.25
2018-04-22T04:34:48.233Z,88.03
2018-04-22T04:37:16.371Z,87.78
2018-04-22T04:39:44.512Z,87.70
2018-04-22T04:42:12.638Z,87.28
2018-04-22T04:44:40.758Z,87.25
2018-04-22T04:47:08.908Z,87.14
2018-04-22T04:49:37.040Z,86.79
2018-04-22T04:52:05.174Z,86.84
2018-04-22T04:54:33.311Z,86.37
2018-04-22T04:57:01.435Z,86.25
2018-04-22T04:59:29.590Z,85.97
2018-04-22T05:01:57.713Z,85.93
2018-04-22T05:04:25.899Z,85.44
2018-04-22T05:06:54.030Z,85.08
2018-04-22T05:09:22.172Z,84.57
2018-04-22T05:11:51.248Z,83.93
2018-04-22T05:14:19.392Z,83.98
2018-04-22T05:16:47.511Z,83.85
2018-04-22T05:19:15.637Z,84.17
2018-04-22T05:21:43.763Z,83.45
2018-04-22T05:24:11.885Z,83.59
2018-04-22T05:26:40.020Z,82.47
2018-04-22T05:29:08.173Z,82.14
2018-04-22T05:31:36.432Z,82.02
2018-04-22T05:34:04.562Z,81.45
2018-04-22T05:36:32.707Z,81.08
2018-04-22T05:39:00.821Z,81.17
2018-04-22T05:41:28.959Z,80.43
2018-04-22T05:43:57.089Z,79.69
2018-04-22T05:46:25.817Z,78.80
2018-04-22T05:48:53.951Z,78.23
2018-04-22T05:51:22.082Z,78.79
2018-04-22T05:53:50.212Z,78.78
2018-04-22T05:56:18.336Z,78.40
2018-04-22T05:58:46.467Z,77.64
2018-04-22T06:01:14.595Z,75.78
2018-04-22T06:03:42.723Z,76.15
2018-04-22T06:06:10.959Z,75.81
2018-04-22T06:08:39.145Z,76.26
2018-04-22T06:11:07.242Z,75.33
2018-04-22T06:13:35.380Z,74.19
2018-04-22T06:16:03.510Z,74.92
2018-04-22T06:18:31.733Z,73.79
2018-04-22T06:20:59.854Z,73.05
2018-04-22T06:23:28.011Z,72.58
2018-04-22T06:25:56.144Z,71.75
2018-04-22T06:28:24.269Z,71.59
2018-04-22T06:30:52.423Z,72.13
2018-04-22T06:33:20.541Z,71.67
2018-04-22T06:35:48.702Z,71.22
2018-04-22T06:38:16.835Z,70.74
2018-04-22T06:40:44.962Z,70.19
2018-04-22T06:43:13.120Z,70.79
2018-04-22T06:45:41.254Z,69.94
2018-04-22T06:48:09.375Z,71.21
2018-04-22T06:50:37.512Z,69.60
2018-04-22T06:53:05.742Z,69.69
2018-04-22T06:58:08.254Z,67.94
2018-04-22T07:00:36.411Z,67.48
2018-04-22T07:03:04.539Z,67.31
2018-04-22T07:05:32.669Z,66.48
2018-04-22T07:08:00.781Z,67.05
2018-04-22T07:10:28.916Z,63.91
2018-04-22T07:12:57.078Z,65.02
2018-04-22T07:15:25.218Z,64.17
2018-04-22T07:17:53.338Z,64.14
2018-04-22T07:20:21.485Z,63.64
2018-04-22T07:22:49.608Z,62.60
2018-04-22T07:25:17.735Z,62.67
2018-04-22T07:27:45.858Z,62.29
2018-04-22T07:30:13.983Z,63.97
2018-04-22T07:32:42.123Z,63.77
2018-04-22T07:35:10.247Z,62.96
2018-04-22T07:37:38.372Z,62.37
2018-04-22T07:40:06.512Z,62.23
2018-04-22T07:42:34.690Z,62.41
2018-04-22T07:45:02.827Z,61.92
2018-04-22T07:47:30.948Z,62.26
2018-04-22T07:49:59.075Z,63.63
2018-04-22T07:52:27.215Z,60.85
2018-04-22T07:54:55.358Z,61.73
2018-04-22T07:57:23.503Z,60.28
2018-04-22T07:59:51.707Z,59.51
2018-04-22T08:02:19.831Z,60.43
2018-04-22T08:04:47.960Z,58.56
2018-04-22T08:07:16.105Z,59.30
2018-04-22T08:09:44.235Z,57.73
2018-04-22T08:12:12.426Z,57.68
2018-04-22T08:14:40.597Z,57.92
2018-04-22T08:17:08.943Z,56.44
2018-04-22T08:19:37.079Z,55.70
2018-04-22T08:22:05.202Z,55.39
2018-04-22T08:24:33.332Z,55.05
2018-04-22T08:27:01.530Z,53.55
2018-04-22T08:29:29.660Z,53.86
2018-04-22T08:31:57.805Z,52.81
2018-04-22T08:34:25.942Z,54.31
2018-04-22T08:36:54.078Z,53.73
2018-04-22T08:39:22.247Z,53.01
2018-04-22T08:41:50.355Z,53.62
2018-04-22T08:44:18.483Z,53.00
2018-04-22T08:46:46.603Z,53.24
2018-04-22T08:49:18.753Z,52.98
2018-04-22T08:51:50.659Z,52.66
2018-04-22T08:54:19.187Z,52.75
2018-04-22T08:56:48.153Z,52.03
2018-04-22T08:59:16.362Z,50.75
2018-04-22T09:01:44.481Z,50.45
2018-04-22T09:04:12.600Z,48.82
2018-04-22T09:06:40.732Z,48.08
2018-04-22T09:09:10.116Z,48.91
2018-04-22T09:11:39.103Z,47.62
2018-04-22T09:14:07.236Z,48.51
2018-04-22T09:16:35.375Z,48.99
2018-04-22T09:19:03.518Z,49.04
2018-04-22T09:21:31.635Z,47.86
2018-04-22T09:23:59.800Z,46.68
2018-04-22T09:26:27.922Z,46.45
2018-04-22T09:28:56.059Z,46.15
2018-04-22T09:31:24.198Z,45.69
2018-04-22T09:33:52.328Z,45.04
2018-04-22T09:36:20.458Z,46.03
2018-04-22T09:38:48.595Z,46.57
2018-04-22T09:41:16.721Z,45.29
2018-04-22T09:43:44.853Z,43.46
2018-04-22T09:46:12.987Z,44.20
2018-04-22T09:48:41.121Z,44.13
2018-04-22T09:51:09.870Z,46.11
2018-04-22T09:53:38.010Z,45.61
2018-04-22T09:56:06.145Z,43.03
2018-04-22T09:58:34.273Z,44.05
2018-04-22T10:01:02.426Z,44.26
2018-04-22T10:03:31.315Z,43.24
2018-04-22T10:06:02.487Z,44.54
2018-04-22T10:08:30.584Z,43.48
2018-04-22T10:10:58.728Z,43.80
2018-04-22T10:13:26.842Z,43.22
2018-04-22T10:15:55.139Z,42.44
2018-04-22T10:18:23.277Z,43.54
2018-04-22T10:20:51.398Z,41.64
2018-04-22T10:23:19.523Z,43.26
2018-04-22T10:25:47.677Z,41.61
2018-04-22T10:28:15.798Z,41.37
2018-04-22T10:30:43.938Z,38.56
2018-04-22T10:33:12.062Z,40.51
2018-04-22T10:35:40.195Z,38.04
2018-04-22T10:38:08.331Z,37.75
2018-04-22T10:40:36.460Z,38.81
2018-04-22T10:43:04.591Z,38.77
2018-04-22T10:45:32.754Z,37.59
2018-04-22T10:48:00.917Z,38.19
2018-04-22T10:50:29.078Z,38.91
2018-04-22T10:52:57.193Z,39.56
2018-04-22T10:55:25.332Z,38.31
2018-04-22T10:57:53.530Z,37.59
2018-04-22T11:00:21.591Z,36.54
2018-04-22T11:02:49.713Z,37.75
2018-04-22T11:05:17.824Z,38.92
2018-04-22T11:07:45.959Z,38.29
2018-04-22T11:10:14.099Z,38.43
2018-04-22T11:12:42.212Z,39.87
2018-04-22T11:15:10.886Z,39.74
2018-04-22T11:17:39.012Z,37.26
2018-04-22T11:20:07.130Z,38.96
2018-04-22T11:22:35.265Z,37.07
2018-04-22T11:25:03.398Z,38.38
2018-04-22T11:27:31.522Z,37.48
2018-04-22T11:29:59.847Z,37.34
2018-04-22T11:32:27.969Z,36.87
2018-04-22T11:34:56.115Z,37.53
2018-04-22T11:37:24.223Z,37.89
2018-04-22T11:39:52.352Z,37.57
2018-04-22T11:42:20.481Z,36.43
2018-04-22T11:44:48.617Z,35.59
2018-04-22T11:47:16.750Z,36.78
2018-04-22T11:49:49.984Z,34.94
2018-04-22T11:52:18.269Z,35.16
2018-04-22T11:54:46.392Z,35.45
2018-04-22T11:57:14.566Z,35.95
2018-04-22T11:59:42.701Z,36.32
2018-04-22T12:02:10.810Z,37.82
2018-04-22T12:04:38.928Z,35.50
2018-04-22T12:07:07.113Z,34.91
2018-04-22T12:09:35.227Z,35.60
2018-04-22T12:12:03.356Z,36.27
2018-04-22T12:14:31.477Z,36.23
2018-04-22T12:16:59.607Z,36.06
2018-04-22T12:19:27.777Z,34.47
2018-04-22T12:21:55.914Z,32.70
2018-04-22T12:24:24.054Z,31.47
2018-04-22T12:26:52.165Z,28.91
2018-04-22T12:29:20.287Z,31.42
2018-04-22T12:31:48.417Z,30.47
2018-04-22T12:34:16.525Z,30.33
2018-04-22T12:36:44.798Z,30.06
2018-04-22T12:39:12.917Z,29.88
2018-04-22T12:41:41.067Z,28.18
2018-04-22T12:44:09.190Z,29.57
2018-04-22T12:46:37.316Z,29.89
2018-04-22T12:49:05.479Z,27.49
2018-04-22T12:51:33.596Z,27.37
2018-04-22T12:54:01.709Z,28.43
2018-04-22T12:56:29.836Z,27.77
2018-04-22T12:58:57.971Z,28.14
2018-04-22T13:01:26.083Z,26.67
2018-04-22T13:03:54.203Z,27.07
2018-04-22T13:06:22.318Z,27.81
2018-04-22T13:08:50.443Z,28.43
2018-04-22T13:11:19.320Z,27.31
2018-04-22T13:13:47.439Z,27.09
2018-04-22T13:16:15.558Z,28.40
2018-04-22T13:18:43.693Z,27.60
2018-04-22T13:21:11.807Z,27.84
2018-04-22T13:23:39.925Z,28.01
2018-04-22T13:26:08.079Z,27.73
2018-04-22T13:28:36.197Z,27.90
2018-04-22T13:31:04.309Z,27.45
2018-04-22T13:33:32.457Z,26.53
2018-04-22T13:36:00.645Z,26.02
2018-04-22T13:38:28.759Z,26.54
2018-04-22T13:40:56.906Z,26.06
2018-04-22T13:43:25.073Z,25.16
2018-04-22T13:45:53.189Z,25.15
2018-04-22T13:48:21.310Z,25.55
2018-04-22T13:50:49.585Z,25.99
2018-04-22T13:53:17.826Z,25.13
2018-04-22T13:55:45.934Z,27.79
2018-04-22T13:58:14.098Z,27.46
2018-04-22T14:00:42.234Z,27.04
2018-04-22T14:03:10.338Z,24.47
2018-04-22T14:05:38.481Z,24.17
2018-04-22T14:08:06.596Z,25.08
2018-04-22T14:10:34.744Z,24.78
2018-04-22T14:13:03.025Z,25.87
2018-04-22T14:15:31.140Z,25.22
2018-04-22T14:17:59.257Z,24.90
2018-04-22T14:20:27.415Z,25.54
2018-04-22T14:22:55.547Z,25.81
2018-04-22T14:25:23.698Z,25.84
2018-04-22T14:27:51.851Z,24.89
2018-04-22T14:30:19.979Z,25.27
2018-04-22T14:32:48.107Z,25.45
2018-04-22T14:35:16.251Z,25.07
2018-04-22T14:37:44.373Z,25.24
2018-04-22T14:40:12.499Z,25.59
2018-04-22T14:42:40.617Z,25.74
2018-04-22T14:45:20.519Z,25.04
2018-04-22T14:47:48.654Z,26.04
2018-04-22T14:50:16.782Z,26.15
2018-04-22T14:52:44.934Z,25.67
2018-04-22T14:55:13.046Z,26.01
2018-04-22T14:57:41.178Z,25.97
2018-04-22T15:00:09.289Z,26.54
2018-04-22T15:02:37.405Z,26.76
2018-04-22T15:05:05.564Z,26.67
2018-04-22T15:07:33.684Z,26.84
2018-04-22T15:10:01.812Z,27.72
2018-04-22T15:12:29.940Z,28.10
2018-04-22T15:14:58.072Z,27.61
2018-04-22T15:17:26.198Z,28.01
2018-04-22T15:19:54.312Z,28.01
2018-04-22T15:22:22.431Z,27.98
2018-04-22T15:24:50.566Z,28.39
2018-04-22T15:27:19.249Z,28.02
2018-04-22T15:29:47.383Z,27.64
2018-04-22T15:32:15.513Z,28.28
2018-04-22T15:34:43.645Z,27.66
2018-04-22T15:37:11.768Z,28.05
2018-04-22T15:39:39.912Z,27.33
2018-04-22T15:42:08.025Z,28.54
2018-04-22T15:44:36.146Z,28.19
2018-04-22T15:47:04.272Z,28.18
2018-04-22T15:49:32.424Z,27.86
2018-04-22T15:52:00.546Z,28.73
2018-04-22T15:54:28.672Z,28.96
2018-04-22T15:56:56.787Z,29.72
2018-04-22T15:59:24.930Z,28.98
2018-04-22T16:01:53.057Z,29.11
2018-04-22T16:04:21.173Z,28.89
2018-04-22T16:06:49.295Z,30.15
2018-04-22T16:09:17.425Z,29.60
2018-04-22T16:11:45.567Z,29.45
2018-04-22T16:14:13.702Z,29.88
2018-04-22T16:16:41.814Z,29.98
2018-04-22T16:19:10.709Z,29.67
2018-04-22T16:21:38.838Z,30.47
2018-04-22T16:24:06.962Z,31.16
2018-04-22T16:26:35.084Z,30.94
2018-04-22T16:29:03.222Z,31.23
2018-04-22T16:31:31.347Z,31.50
2018-04-22T16:33:59.473Z,32.16
2018-04-22T16:36:27.611Z,31.45
2018-04-22T16:38:55.795Z,32.02
2018-04-22T16:41:23.937Z,32.20
2018-04-22T16:43:52.029Z,32.51
2018-04-22T16:46:20.146Z,32.27
2018-04-22T16:48:48.270Z,32.27
2018-04-22T16:51:16.453Z,32.52
2018-04-22T16:53:44.568Z,32.70
2018-04-22T16:56:12.694Z,32.73
2018-04-22T16:58:40.811Z,33.33
2018-04-22T17:01:09.042Z,33.23
2018-04-22T17:03:37.157Z,33.54
2018-04-22T17:06:05.265Z,33.78
2018-04-22T17:08:33.405Z,33.85
2018-04-22T17:11:01.549Z,34.40
2018-04-22T17:13:29.661Z,34.69
2018-04-22T17:15:57.781Z,34.99
2018-04-22T17:18:25.921Z,35.56
2018-04-22T17:20:54.058Z,35.95
2018-04-22T17:23:22.195Z,36.56
2018-04-22T17:25:50.309Z,36.86
2018-04-22T17:28:18.430Z,37.68
2018-04-22T17:30:46.679Z,38.55
2018-04-22T17:33:14.807Z,39.11
2018-04-22T17:35:42.941Z,39.59
2018-04-22T17:38:11.054Z,40.09
2018-04-22T17:40:39.185Z,39.89
2018-04-22T17:43:07.432Z,39.65
2018-04-22T17:45:35.635Z,39.50
2018-04-22T17:48:03.891Z,39.46
2018-04-22T17:50:32.008Z,40.26
2018-04-22T17:53:00.135Z,40.82
2018-04-22T17:55:28.247Z,40.38
2018-04-22T17:57:56.355Z,41.69
2018-04-22T18:00:24.478Z,40.93
2018-04-22T18:02:52.608Z,43.03
2018-04-22T18:05:20.749Z,44.05
2018-04-22T18:07:48.867Z,49.02
2018-04-22T18:10:19.223Z,46.92
2018-04-22T18:12:48.898Z,45.77
2018-04-22T18:15:17.872Z,45.69
2018-04-22T18:17:45.990Z,47.19
2018-04-22T18:20:14.113Z,45.43
2018-04-22T18:22:42.242Z,45.14
2018-04-22T18:25:11.354Z,45.59
2018-04-22T18:27:39.487Z,46.14
2018-04-22T18:30:07.594Z,46.21
2018-04-22T18:32:38.959Z,47.15
2018-04-22T18:35:07.107Z,47.63
2018-04-22T18:37:35.225Z,49.04
2018-04-22T18:40:03.356Z,49.62
2018-04-22T18:42:31.470Z,50.65
2018-04-22T18:44:59.622Z,49.96
2018-04-22T18:47:27.742Z,49.96
2018-04-22T18:49:55.957Z,50.05
2018-04-22T18:52:24.095Z,50.88
2018-04-22T18:54:52.232Z,51.39
2018-04-22T18:57:20.355Z,50.81
2018-04-22T18:59:48.498Z,51.92
2018-04-22T19:02:16.601Z,53.80
2018-04-22T19:04:44.722Z,53.42
2018-04-22T19:07:12.863Z,52.50
2018-04-22T19:09:40.983Z,55.43
2018-04-22T19:12:09.103Z,54.79
2018-04-22T19:14:37.237Z,54.53
2018-04-22T19:17:05.449Z,54.21
2018-04-22T19:19:33.600Z,54.16
2018-04-22T19:22:01.726Z,56.73
2018-04-22T19:24:29.850Z,56.91
2018-04-22T19:26:57.987Z,56.27
2018-04-22T19:29:26.126Z,55.98
2018-04-22T19:31:54.262Z,58.57
2018-04-22T19:34:22.388Z,57.43
2018-04-22T19:36:50.534Z,57.45
2018-04-22T19:39:18.937Z,57.16
2018-04-22T19:41:47.073Z,58.61
2018-04-22T19:44:15.191Z,58.14
2018-04-22T19:46:43.314Z,57.92
2018-04-22T19:49:11.503Z,58.08
2018-04-22T19:51:39.892Z,58.98
2018-04-22T19:54:08.025Z,60.15
2018-04-22T19:56:36.159Z,60.52
2018-04-22T19:59:04.297Z,60.20
2018-04-22T20:01:32.443Z,61.25
2018-04-22T20:04:00.562Z,61.39
2018-04-22T20:06:28.725Z,62.96
2018-04-22T20:08:56.870Z,63.10
2018-04-22T20:11:25.037Z,62.87
2018-04-22T20:13:53.176Z,62.56
2018-04-22T20:16:21.308Z,63.19
2018-04-22T20:18:49.430Z,63.05
2018-04-22T20:21:17.561Z,62.98
2018-04-22T20:23:45.687Z,62.85
2018-04-22T20:26:13.818Z,63.63
2018-04-22T20:28:42.039Z,63.64
2018-04-22T20:31:10.527Z,63.46
2018-04-22T20:33:38.812Z,63.33
2018-04-22T20:36:06.918Z,63.42
2018-04-22T20:38:35.048Z,63.32
2018-04-22T20:41:04.467Z,63.22
2018-04-22T20:43:32.595Z,63.27
2018-04-22T20:46:01.613Z,63.50
2018-04-22T20:48:29.733Z,63.66
2018-04-22T20:50:57.863Z,63.83
2018-04-22T20:53:25.995Z,63.61
2018-04-22T20:55:54.119Z,63.51
2018-04-22T20:58:22.268Z,63.45
2018-04-22T21:00:50.384Z,63.96
2018-04-22T21:03:19.331Z,63.75
2018-04-22T21:05:47.459Z,63.95
2018-04-22T21:08:15.583Z,64.82
2018-04-22T21:10:43.713Z,65.22
2018-04-22T21:13:11.855Z,65.25
2018-04-22T21:15:39.983Z,65.12
2018-04-22T21:18:08.130Z,65.34
2018-04-22T21:20:36.259Z,65.62
2018-04-22T21:23:04.385Z,65.72
2018-04-22T21:25:32.519Z,66.21
2018-04-22T21:28:00.651Z,66.93
2018-04-22T21:30:28.772Z,67.07
2018-04-22T21:32:56.897Z,67.06
2018-04-22T21:35:25.045Z,67.73
2018-04-22T21:37:53.175Z,68.16
2018-04-22T21:40:21.296Z,67.94
2018-04-22T21:42:49.424Z,68.18
2018-04-22T21:45:17.555Z,68.14
2018-04-22T21:47:45.669Z,68.18
2018-04-22T21:50:13.806Z,68.24
2018-04-22T21:52:41.936Z,68.62
2018-04-22T21:55:10.288Z,68.90
2018-04-22T21:57:38.415Z,68.58
2018-04-22T22:00:06.530Z,68.42
2018-04-22T22:02:34.652Z,68.62
2018-04-22T22:05:02.835Z,68.89
2018-04-22T22:07:30.956Z,68.98
2018-04-22T22:10:00.607Z,69.05
2018-04-22T22:12:28.776Z,69.23
2018-04-22T22:14:56.918Z,69.50
2018-04-22T22:17:25.055Z,69.59
2018-04-22T22:19:53.198Z,70.39
2018-04-22T22:22:21.334Z,70.72
2018-04-22T22:24:49.514Z,70.63
2018-04-22T22:27:17.667Z,70.98
2018-04-22T22:29:45.786Z,70.99
2018-04-22T22:32:13.921Z,71.40
2018-04-22T22:34:42.075Z,71.59
2018-04-22T22:37:17.503Z,71.82
2018-04-22T22:39:45.650Z,71.96
2018-04-22T22:42:13.793Z,72.62
2018-04-22T22:44:41.916Z,72.68
2018-04-22T22:47:10.878Z,73.35
2018-04-22T22:49:38.993Z,73.90
2018-04-22T22:52:07.165Z,73.72
2018-04-22T22:54:35.308Z,73.72
2018-04-22T22:57:03.450Z,73.88
2018-04-22T22:59:31.566Z,73.98
2018-04-22T23:01:59.690Z,74.08
2018-04-22T23:04:27.806Z,74.52
2018-04-22T23:06:55.955Z,74.61
2018-04-22T23:09:24.113Z,74.84
2018-04-22T23:11:52.295Z,74.69
2018-04-22T23:14:20.424Z,76.45
2018-04-22T23:16:48.552Z,76.67
2018-04-22T23:19:16.691Z,76.73
2018-04-22T23:21:45.968Z,76.77
2018-04-22T23:24:14.107Z,76.55
2018-04-22T23:26:42.241Z,76.45
2018-04-22T23:29:10.726Z,76.76
2018-04-22T23:31:38.863Z,76.90
2018-04-22T23:34:06.979Z,77.16
2018-04-22T23:36:35.103Z,77.01
2018-04-22T23:39:03.226Z,76.98
2018-04-22T23:41:31.350Z,77.02
2018-04-22T23:43:59.478Z,77.38
2018-04-22T23:46:27.614Z,77.33
2018-04-22T23:48:55.866Z,77.49
2018-04-22T23:51:23.990Z,77.33
2018-04-22T23:53:52.156Z,77.71
2018-04-22T23:56:20.280Z,77.86
2018-04-22T23:58:48.410Z,78.90
